sensor_id;sensor_type;location;lat;lon;timestamp;temperature;humidity
51613;DHT22;37694;51.748;14.326;2023-06-22T00:00:46;20.20;46.20
51613;DHT22;37694;51.748;14.326;2023-06-22T00:03:12;20.20;46.20
51613;DHT22;37694;51.748;14.326;2023-06-22T00:05:38;20.20;46.20
51613;DHT22;37694;51.748;14.326;2023-06-22T00:08:04;20.10;46.30
51613;DHT22;37694;51.748;14.326;2023-06-22T00:10:33;20.10;46.20
51613;DHT22;37694;51.748;14.326;2023-06-22T00:12:58;20.10;46.30
51613;DHT22;37694;51.748;14.326;2023-06-22T00:15:24;20.10;46.30
51613;DHT22;37694;51.748;14.326;2023-06-22T00:17:50;20.10;46.20
51613;DHT22;37694;51.748;14.326;2023-06-22T00:20:16;20.20;46.50
51613;DHT22;37694;51.748;14.326;2023-06-22T00:22:43;20.20;46.50
51613;DHT22;37694;51.748;14.326;2023-06-22T00:25:09;20.10;46.40
51613;DHT22;37694;51.748;14.326;2023-06-22T00:27:36;20.10;46.50
51613;DHT22;37694;51.748;14.326;2023-06-22T00:30:02;20.10;46.50
51613;DHT22;37694;51.748;14.326;2023-06-22T00:32:28;20.10;46.40
51613;DHT22;37694;51.748;14.326;2023-06-22T00:34:54;20.00;46.20
51613;DHT22;37694;51.748;14.326;2023-06-22T00:37:20;20.00;46.20
51613;DHT22;37694;51.748;14.326;2023-06-22T00:39:48;20.00;46.20
51613;DHT22;37694;51.748;14.326;2023-06-22T00:42:14;20.00;46.20
51613;DHT22;37694;51.748;14.326;2023-06-22T00:44:39;20.00;46.20
51613;DHT22;37694;51.748;14.326;2023-06-22T00:47:06;20.00;47.00
51613;DHT22;37694;51.748;14.326;2023-06-22T00:49:32;19.90;46.10
51613;DHT22;37694;51.748;14.326;2023-06-22T00:51:58;20.00;46.20
51613;DHT22;37694;51.748;14.326;2023-06-22T00:54:24;20.00;46.20
51613;DHT22;37694;51.748;14.326;2023-06-22T00:56:54;19.90;46.20
51613;DHT22;37694;51.748;14.326;2023-06-22T00:59:21;19.90;46.20
51613;DHT22;37694;51.748;14.326;2023-06-22T01:01:48;19.90;46.20
51613;DHT22;37694;51.748;14.326;2023-06-22T01:04:15;19.90;46.20
51613;DHT22;37694;51.748;14.326;2023-06-22T01:06:56;19.90;46.20
51613;DHT22;37694;51.748;14.326;2023-06-22T01:09:31;19.90;46.10
51613;DHT22;37694;51.748;14.326;2023-06-22T01:12:02;19.90;46.20
51613;DHT22;37694;51.748;14.326;2023-06-22T01:14:41;19.90;46.30
51613;DHT22;37694;51.748;14.326;2023-06-22T01:17:09;19.80;46.50
51613;DHT22;37694;51.748;14.326;2023-06-22T01:19:49;19.90;46.40
51613;DHT22;37694;51.748;14.326;2023-06-22T01:22:22;19.90;46.30
51613;DHT22;37694;51.748;14.326;2023-06-22T01:27:28;19.80;46.60
51613;DHT22;37694;51.748;14.326;2023-06-22T01:29:56;19.80;46.60
51613;DHT22;37694;51.748;14.326;2023-06-22T01:32:34;19.80;46.70
51613;DHT22;37694;51.748;14.326;2023-06-22T01:35:03;19.80;46.60
51613;DHT22;37694;51.748;14.326;2023-06-22T01:37:30;19.80;46.80
51613;DHT22;37694;51.748;14.326;2023-06-22T01:39:58;19.80;47.10
51613;DHT22;37694;51.748;14.326;2023-06-22T01:42:25;19.80;47.00
51613;DHT22;37694;51.748;14.326;2023-06-22T01:44:55;19.80;47.00
51613;DHT22;37694;51.748;14.326;2023-06-22T01:47:24;19.80;47.10
51613;DHT22;37694;51.748;14.326;2023-06-22T01:49:51;19.80;47.00
51613;DHT22;37694;51.748;14.326;2023-06-22T01:52:17;19.80;46.90
51613;DHT22;37694;51.748;14.326;2023-06-22T01:54:43;19.80;46.80
51613;DHT22;37694;51.748;14.326;2023-06-22T01:57:09;19.70;46.80
51613;DHT22;37694;51.748;14.326;2023-06-22T01:59:43;19.70;46.80
51613;DHT22;37694;51.748;14.326;2023-06-22T02:02:11;19.70;46.80
51613;DHT22;37694;51.748;14.326;2023-06-22T02:04:46;19.80;47.00
51613;DHT22;37694;51.748;14.326;2023-06-22T02:07:14;19.80;47.00
51613;DHT22;37694;51.748;14.326;2023-06-22T02:09:44;19.70;46.90
51613;DHT22;37694;51.748;14.326;2023-06-22T02:12:13;19.70;47.10
51613;DHT22;37694;51.748;14.326;2023-06-22T02:14:42;19.70;47.10
51613;DHT22;37694;51.748;14.326;2023-06-22T02:17:09;19.80;47.20
51613;DHT22;37694;51.748;14.326;2023-06-22T02:19:40;19.70;47.10
51613;DHT22;37694;51.748;14.326;2023-06-22T02:22:06;19.80;47.20
51613;DHT22;37694;51.748;14.326;2023-06-22T02:24:32;19.70;47.30
51613;DHT22;37694;51.748;14.326;2023-06-22T02:26:59;19.80;47.20
51613;DHT22;37694;51.748;14.326;2023-06-22T02:29:26;19.80;47.20
51613;DHT22;37694;51.748;14.326;2023-06-22T02:31:53;19.70;47.10
51613;DHT22;37694;51.748;14.326;2023-06-22T02:34:18;19.70;47.30
51613;DHT22;37694;51.748;14.326;2023-06-22T02:36:48;19.70;47.30
51613;DHT22;37694;51.748;14.326;2023-06-22T02:39:24;19.70;47.20
51613;DHT22;37694;51.748;14.326;2023-06-22T02:41:51;19.70;47.20
51613;DHT22;37694;51.748;14.326;2023-06-22T02:44:17;19.70;47.20
51613;DHT22;37694;51.748;14.326;2023-06-22T02:46:43;19.70;47.30
51613;DHT22;37694;51.748;14.326;2023-06-22T02:49:10;19.70;47.30
51613;DHT22;37694;51.748;14.326;2023-06-22T02:51:38;19.70;47.50
51613;DHT22;37694;51.748;14.326;2023-06-22T02:54:05;19.70;47.30
51613;DHT22;37694;51.748;14.326;2023-06-22T02:56:31;19.70;47.30
51613;DHT22;37694;51.748;14.326;2023-06-22T02:58:56;19.60;47.30
51613;DHT22;37694;51.748;14.326;2023-06-22T03:01:29;19.70;47.20
51613;DHT22;37694;51.748;14.326;2023-06-22T03:03:58;19.60;47.20
51613;DHT22;37694;51.748;14.326;2023-06-22T03:06:24;19.60;47.20
51613;DHT22;37694;51.748;14.326;2023-06-22T03:08:59;19.60;47.40
51613;DHT22;37694;51.748;14.326;2023-06-22T03:11:25;19.50;47.40
51613;DHT22;37694;51.748;14.326;2023-06-22T03:13:50;19.50;47.40
51613;DHT22;37694;51.748;14.326;2023-06-22T03:16:17;19.50;47.60
51613;DHT22;37694;51.748;14.326;2023-06-22T03:18:43;19.60;47.40
51613;DHT22;37694;51.748;14.326;2023-06-22T03:21:09;19.60;47.50
51613;DHT22;37694;51.748;14.326;2023-06-22T03:23:35;19.50;47.40
51613;DHT22;37694;51.748;14.326;2023-06-22T03:26:01;19.50;47.50
51613;DHT22;37694;51.748;14.326;2023-06-22T03:28:27;19.50;47.50
51613;DHT22;37694;51.748;14.326;2023-06-22T03:30:52;19.50;47.40
51613;DHT22;37694;51.748;14.326;2023-06-22T03:33:18;19.50;47.60
51613;DHT22;37694;51.748;14.326;2023-06-22T03:35:44;19.50;47.60
51613;DHT22;37694;51.748;14.326;2023-06-22T03:38:09;19.50;47.60
51613;DHT22;37694;51.748;14.326;2023-06-22T03:40:35;19.50;48.40
51613;DHT22;37694;51.748;14.326;2023-06-22T03:43:01;19.50;47.60
51613;DHT22;37694;51.748;14.326;2023-06-22T03:45:26;19.50;47.70
51613;DHT22;37694;51.748;14.326;2023-06-22T03:47:52;19.50;47.60
51613;DHT22;37694;51.748;14.326;2023-06-22T03:50:18;19.50;47.60
51613;DHT22;37694;51.748;14.326;2023-06-22T03:52:46;19.50;47.60
51613;DHT22;37694;51.748;14.326;2023-06-22T03:55:11;19.50;47.80
51613;DHT22;37694;51.748;14.326;2023-06-22T03:57:37;19.50;48.00
51613;DHT22;37694;51.748;14.326;2023-06-22T04:00:03;19.50;48.30
51613;DHT22;37694;51.748;14.326;2023-06-22T04:02:33;19.50;48.30
51613;DHT22;37694;51.748;14.326;2023-06-22T04:04:59;19.50;49.50
51613;DHT22;37694;51.748;14.326;2023-06-22T04:07:24;19.50;49.10
51613;DHT22;37694;51.748;14.326;2023-06-22T04:09:50;19.50;49.00
51613;DHT22;37694;51.748;14.326;2023-06-22T04:12:16;19.60;49.40
51613;DHT22;37694;51.748;14.326;2023-06-22T04:14:41;19.60;49.60
51613;DHT22;37694;51.748;14.326;2023-06-22T04:17:07;19.70;49.80
51613;DHT22;37694;51.748;14.326;2023-06-22T04:19:33;19.70;50.20
51613;DHT22;37694;51.748;14.326;2023-06-22T04:21:58;19.70;50.30
51613;DHT22;37694;51.748;14.326;2023-06-22T04:24:24;19.70;50.90
51613;DHT22;37694;51.748;14.326;2023-06-22T04:26:50;19.70;51.30
51613;DHT22;37694;51.748;14.326;2023-06-22T04:29:19;19.80;51.80
51613;DHT22;37694;51.748;14.326;2023-06-22T04:31:44;19.80;52.20
51613;DHT22;37694;51.748;14.326;2023-06-22T04:34:10;19.90;52.50
51613;DHT22;37694;51.748;14.326;2023-06-22T04:36:37;19.90;53.00
51613;DHT22;37694;51.748;14.326;2023-06-22T04:39:10;19.90;53.50
51613;DHT22;37694;51.748;14.326;2023-06-22T04:41:40;20.00;54.20
51613;DHT22;37694;51.748;14.326;2023-06-22T04:44:09;20.00;54.10
51613;DHT22;37694;51.748;14.326;2023-06-22T04:46:36;20.10;54.40
51613;DHT22;37694;51.748;14.326;2023-06-22T04:49:07;20.10;54.70
51613;DHT22;37694;51.748;14.326;2023-06-22T04:51:40;20.10;54.70
51613;DHT22;37694;51.748;14.326;2023-06-22T04:54:07;20.20;55.10
51613;DHT22;37694;51.748;14.326;2023-06-22T04:56:33;20.30;55.00
51613;DHT22;37694;51.748;14.326;2023-06-22T04:59:00;20.30;55.30
51613;DHT22;37694;51.748;14.326;2023-06-22T05:01:26;20.30;55.10
51613;DHT22;37694;51.748;14.326;2023-06-22T05:03:51;20.20;55.00
51613;DHT22;37694;51.748;14.326;2023-06-22T05:06:28;20.30;55.10
51613;DHT22;37694;51.748;14.326;2023-06-22T05:08:54;20.30;55.10
51613;DHT22;37694;51.748;14.326;2023-06-22T05:11:32;20.40;55.00
51613;DHT22;37694;51.748;14.326;2023-06-22T05:13:57;20.40;55.10
51613;DHT22;37694;51.748;14.326;2023-06-22T05:16:24;20.50;55.20
51613;DHT22;37694;51.748;14.326;2023-06-22T05:18:52;20.50;54.90
51613;DHT22;37694;51.748;14.326;2023-06-22T05:21:22;20.50;55.00
51613;DHT22;37694;51.748;14.326;2023-06-22T05:23:48;20.60;55.10
51613;DHT22;37694;51.748;14.326;2023-06-22T05:26:14;20.60;55.10
51613;DHT22;37694;51.748;14.326;2023-06-22T05:28:40;20.60;55.10
51613;DHT22;37694;51.748;14.326;2023-06-22T05:31:05;20.60;55.60
51613;DHT22;37694;51.748;14.326;2023-06-22T05:33:31;20.90;55.90
51613;DHT22;37694;51.748;14.326;2023-06-22T05:35:57;21.10;56.00
51613;DHT22;37694;51.748;14.326;2023-06-22T05:38:22;21.30;57.00
51613;DHT22;37694;51.748;14.326;2023-06-22T05:40:48;21.50;57.60
51613;DHT22;37694;51.748;14.326;2023-06-22T05:43:15;21.60;57.30
51613;DHT22;37694;51.748;14.326;2023-06-22T05:45:40;21.70;56.60
51613;DHT22;37694;51.748;14.326;2023-06-22T05:48:06;21.80;56.30
51613;DHT22;37694;51.748;14.326;2023-06-22T05:50:32;21.90;56.20
51613;DHT22;37694;51.748;14.326;2023-06-22T05:52:58;22.00;56.00
51613;DHT22;37694;51.748;14.326;2023-06-22T05:55:23;22.00;56.20
51613;DHT22;37694;51.748;14.326;2023-06-22T05:57:49;22.10;56.10
51613;DHT22;37694;51.748;14.326;2023-06-22T06:00:15;22.10;55.70
51613;DHT22;37694;51.748;14.326;2023-06-22T06:02:40;22.20;55.90
51613;DHT22;37694;51.748;14.326;2023-06-22T06:05:10;22.30;55.40
51613;DHT22;37694;51.748;14.326;2023-06-22T06:07:36;22.40;55.60
51613;DHT22;37694;51.748;14.326;2023-06-22T06:10:03;22.40;55.90
51613;DHT22;37694;51.748;14.326;2023-06-22T06:12:30;22.50;56.10
51613;DHT22;37694;51.748;14.326;2023-06-22T06:14:55;22.60;55.90
51613;DHT22;37694;51.748;14.326;2023-06-22T06:17:22;22.60;56.10
51613;DHT22;37694;51.748;14.326;2023-06-22T06:19:47;22.70;56.50
51613;DHT22;37694;51.748;14.326;2023-06-22T06:22:13;22.80;56.60
51613;DHT22;37694;51.748;14.326;2023-06-22T06:24:39;22.90;56.40
51613;DHT22;37694;51.748;14.326;2023-06-22T06:27:04;22.90;56.60
51613;DHT22;37694;51.748;14.326;2023-06-22T06:29:31;23.00;57.00
51613;DHT22;37694;51.748;14.326;2023-06-22T06:31:57;23.10;57.20
51613;DHT22;37694;51.748;14.326;2023-06-22T06:34:22;23.10;57.50
51613;DHT22;37694;51.748;14.326;2023-06-22T06:36:48;23.20;57.20
51613;DHT22;37694;51.748;14.326;2023-06-22T06:39:14;23.20;57.00
51613;DHT22;37694;51.748;14.326;2023-06-22T06:41:41;23.30;57.40
51613;DHT22;37694;51.748;14.326;2023-06-22T06:44:07;23.30;57.20
51613;DHT22;37694;51.748;14.326;2023-06-22T06:46:32;23.30;57.00
51613;DHT22;37694;51.748;14.326;2023-06-22T06:48:58;23.40;56.70
51613;DHT22;37694;51.748;14.326;2023-06-22T06:51:24;23.40;56.50
51613;DHT22;37694;51.748;14.326;2023-06-22T06:53:49;23.40;56.10
51613;DHT22;37694;51.748;14.326;2023-06-22T06:56:15;23.50;55.90
51613;DHT22;37694;51.748;14.326;2023-06-22T06:58:41;23.50;55.60
51613;DHT22;37694;51.748;14.326;2023-06-22T07:01:11;23.50;55.40
51613;DHT22;37694;51.748;14.326;2023-06-22T07:03:37;23.60;55.10
51613;DHT22;37694;51.748;14.326;2023-06-22T07:06:03;23.60;54.90
51613;DHT22;37694;51.748;14.326;2023-06-22T07:08:29;23.60;54.70
51613;DHT22;37694;51.748;14.326;2023-06-22T07:10:55;23.60;54.50
51613;DHT22;37694;51.748;14.326;2023-06-22T07:13:20;23.70;54.30
51613;DHT22;37694;51.748;14.326;2023-06-22T07:15:46;23.70;54.10
51613;DHT22;37694;51.748;14.326;2023-06-22T07:18:12;23.70;54.00
51613;DHT22;37694;51.748;14.326;2023-06-22T07:20:37;23.70;53.80
51613;DHT22;37694;51.748;14.326;2023-06-22T07:23:05;23.70;53.70
51613;DHT22;37694;51.748;14.326;2023-06-22T07:25:30;23.80;53.60
51613;DHT22;37694;51.748;14.326;2023-06-22T07:28:01;23.90;53.40
51613;DHT22;37694;51.748;14.326;2023-06-22T07:30:28;23.90;53.30
51613;DHT22;37694;51.748;14.326;2023-06-22T07:32:54;23.90;53.10
51613;DHT22;37694;51.748;14.326;2023-06-22T07:35:20;23.90;53.00
51613;DHT22;37694;51.748;14.326;2023-06-22T07:37:45;23.90;52.20
51613;DHT22;37694;51.748;14.326;2023-06-22T07:40:11;23.60;50.40
51613;DHT22;37694;51.748;14.326;2023-06-22T07:42:37;23.10;49.80
51613;DHT22;37694;51.748;14.326;2023-06-22T07:45:04;22.60;49.60
51613;DHT22;37694;51.748;14.326;2023-06-22T07:47:30;22.30;49.40
51613;DHT22;37694;51.748;14.326;2023-06-22T07:49:58;22.00;49.20
51613;DHT22;37694;51.748;14.326;2023-06-22T07:52:27;21.90;49.50
51613;DHT22;37694;51.748;14.326;2023-06-22T07:54:53;21.80;49.30
51613;DHT22;37694;51.748;14.326;2023-06-22T07:57:19;21.70;49.30
51613;DHT22;37694;51.748;14.326;2023-06-22T07:59:44;21.60;49.20
51613;DHT22;37694;51.748;14.326;2023-06-22T08:02:11;21.60;48.90
51613;DHT22;37694;51.748;14.326;2023-06-22T08:04:36;21.60;49.70
51613;DHT22;37694;51.748;14.326;2023-06-22T08:07:02;21.60;48.60
51613;DHT22;37694;51.748;14.326;2023-06-22T08:09:30;21.50;48.70
51613;DHT22;37694;51.748;14.326;2023-06-22T08:11:56;21.50;48.70
51613;DHT22;37694;51.748;14.326;2023-06-22T08:14:26;21.40;48.40
51613;DHT22;37694;51.748;14.326;2023-06-22T08:16:51;21.40;48.40
51613;DHT22;37694;51.748;14.326;2023-06-22T08:19:17;21.40;48.30
51613;DHT22;37694;51.748;14.326;2023-06-22T08:21:43;21.40;48.10
51613;DHT22;37694;51.748;14.326;2023-06-22T08:24:09;21.40;48.00
51613;DHT22;37694;51.748;14.326;2023-06-22T08:26:35;21.40;48.10
51613;DHT22;37694;51.748;14.326;2023-06-22T08:29:03;21.40;47.90
51613;DHT22;37694;51.748;14.326;2023-06-22T08:31:29;21.40;48.00
51613;DHT22;37694;51.748;14.326;2023-06-22T08:33:55;21.50;48.40
51613;DHT22;37694;51.748;14.326;2023-06-22T08:36:21;21.70;48.90
51613;DHT22;37694;51.748;14.326;2023-06-22T08:38:47;21.90;49.00
51613;DHT22;37694;51.748;14.326;2023-06-22T08:41:17;22.00;49.20
51613;DHT22;37694;51.748;14.326;2023-06-22T08:43:43;22.10;49.20
51613;DHT22;37694;51.748;14.326;2023-06-22T08:46:10;22.20;48.90
51613;DHT22;37694;51.748;14.326;2023-06-22T08:48:36;22.30;48.40
51613;DHT22;37694;51.748;14.326;2023-06-22T08:51:02;22.30;47.80
51613;DHT22;37694;51.748;14.326;2023-06-22T08:53:28;22.30;47.20
51613;DHT22;37694;51.748;14.326;2023-06-22T08:55:54;22.40;46.80
51613;DHT22;37694;51.748;14.326;2023-06-22T08:58:20;22.40;46.50
51613;DHT22;37694;51.748;14.326;2023-06-22T09:00:47;22.40;46.20
51613;DHT22;37694;51.748;14.326;2023-06-22T09:03:13;22.40;45.90
51613;DHT22;37694;51.748;14.326;2023-06-22T09:05:39;22.40;45.70
51613;DHT22;37694;51.748;14.326;2023-06-22T09:08:04;22.40;45.60
51613;DHT22;37694;51.748;14.326;2023-06-22T09:10:30;22.40;45.30
51613;DHT22;37694;51.748;14.326;2023-06-22T09:12:57;22.50;45.30
51613;DHT22;37694;51.748;14.326;2023-06-22T09:15:23;22.50;45.10
51613;DHT22;37694;51.748;14.326;2023-06-22T09:17:48;22.50;44.90
51613;DHT22;37694;51.748;14.326;2023-06-22T09:20:14;22.50;45.70
51613;DHT22;37694;51.748;14.326;2023-06-22T09:22:41;22.40;44.80
51613;DHT22;37694;51.748;14.326;2023-06-22T09:25:07;22.40;44.80
51613;DHT22;37694;51.748;14.326;2023-06-22T09:27:33;22.50;44.80
51613;DHT22;37694;51.748;14.326;2023-06-22T09:29:58;22.50;45.10
51613;DHT22;37694;51.748;14.326;2023-06-22T09:32:24;22.50;45.90
51613;DHT22;37694;51.748;14.326;2023-06-22T09:34:51;22.60;47.30
51613;DHT22;37694;51.748;14.326;2023-06-22T09:37:17;22.60;49.10
51613;DHT22;37694;51.748;14.326;2023-06-22T09:39:42;22.70;49.00
51613;DHT22;37694;51.748;14.326;2023-06-22T09:42:08;22.60;49.90
51613;DHT22;37694;51.748;14.326;2023-06-22T09:44:34;22.50;49.50
51613;DHT22;37694;51.748;14.326;2023-06-22T09:47:00;22.20;49.20
51613;DHT22;37694;51.748;14.326;2023-06-22T09:49:26;22.10;48.90
51613;DHT22;37694;51.748;14.326;2023-06-22T09:51:51;21.90;49.20
51613;DHT22;37694;51.748;14.326;2023-06-22T09:54:18;22.00;52.10
51613;DHT22;37694;51.748;14.326;2023-06-22T09:56:44;22.00;51.80
51613;DHT22;37694;51.748;14.326;2023-06-22T09:59:09;22.00;50.40
51613;DHT22;37694;51.748;14.326;2023-06-22T10:01:35;21.90;49.50
51613;DHT22;37694;51.748;14.326;2023-06-22T10:04:02;21.80;49.10
51613;DHT22;37694;51.748;14.326;2023-06-22T10:06:28;21.60;48.50
51613;DHT22;37694;51.748;14.326;2023-06-22T10:08:54;21.60;50.10
51613;DHT22;37694;51.748;14.326;2023-06-22T10:11:19;21.60;50.90
51613;DHT22;37694;51.748;14.326;2023-06-22T10:13:45;21.70;51.50
51613;DHT22;37694;51.748;14.326;2023-06-22T10:16:11;21.70;52.00
51613;DHT22;37694;51.748;14.326;2023-06-22T10:18:36;21.80;52.30
51613;DHT22;37694;51.748;14.326;2023-06-22T10:21:02;21.70;52.20
51613;DHT22;37694;51.748;14.326;2023-06-22T10:23:27;21.80;51.90
51613;DHT22;37694;51.748;14.326;2023-06-22T10:25:53;21.70;51.60
51613;DHT22;37694;51.748;14.326;2023-06-22T10:28:19;21.70;51.40
51613;DHT22;37694;51.748;14.326;2023-06-22T10:30:44;21.70;51.30
51613;DHT22;37694;51.748;14.326;2023-06-22T10:33:11;21.70;51.10
51613;DHT22;37694;51.748;14.326;2023-06-22T10:35:37;21.70;50.90
51613;DHT22;37694;51.748;14.326;2023-06-22T10:38:04;21.60;50.60
51613;DHT22;37694;51.748;14.326;2023-06-22T10:40:29;21.60;50.30
51613;DHT22;37694;51.748;14.326;2023-06-22T10:42:55;21.60;50.10
51613;DHT22;37694;51.748;14.326;2023-06-22T10:45:21;21.50;49.70
51613;DHT22;37694;51.748;14.326;2023-06-22T10:47:47;21.50;49.30
51613;DHT22;37694;51.748;14.326;2023-06-22T10:50:13;21.40;49.00
51613;DHT22;37694;51.748;14.326;2023-06-22T10:52:38;21.40;48.90
51613;DHT22;37694;51.748;14.326;2023-06-22T10:55:05;21.40;48.70
51613;DHT22;37694;51.748;14.326;2023-06-22T10:57:30;21.30;48.60
51613;DHT22;37694;51.748;14.326;2023-06-22T10:59:56;21.30;48.60
51613;DHT22;37694;51.748;14.326;2023-06-22T11:02:23;21.30;48.60
51613;DHT22;37694;51.748;14.326;2023-06-22T11:04:49;21.30;48.50
51613;DHT22;37694;51.748;14.326;2023-06-22T11:07:15;21.30;48.40
51613;DHT22;37694;51.748;14.326;2023-06-22T11:09:43;21.30;48.20
51613;DHT22;37694;51.748;14.326;2023-06-22T11:12:09;21.30;48.20
51613;DHT22;37694;51.748;14.326;2023-06-22T11:14:35;21.30;48.20
51613;DHT22;37694;51.748;14.326;2023-06-22T11:17:00;21.30;48.00
51613;DHT22;37694;51.748;14.326;2023-06-22T11:19:26;21.30;48.00
51613;DHT22;37694;51.748;14.326;2023-06-22T11:21:52;21.20;47.80
51613;DHT22;37694;51.748;14.326;2023-06-22T11:24:17;21.20;48.00
51613;DHT22;37694;51.748;14.326;2023-06-22T11:26:43;21.20;47.80
51613;DHT22;37694;51.748;14.326;2023-06-22T11:29:09;21.20;47.90
51613;DHT22;37694;51.748;14.326;2023-06-22T11:31:35;21.20;47.80
51613;DHT22;37694;51.748;14.326;2023-06-22T11:34:01;21.20;48.00
51613;DHT22;37694;51.748;14.326;2023-06-22T11:36:28;21.20;47.80
51613;DHT22;37694;51.748;14.326;2023-06-22T11:38:54;21.20;47.80
51613;DHT22;37694;51.748;14.326;2023-06-22T11:41:20;21.20;47.80
51613;DHT22;37694;51.748;14.326;2023-06-22T11:43:46;21.20;47.80
51613;DHT22;37694;51.748;14.326;2023-06-22T11:46:12;21.20;47.80
51613;DHT22;37694;51.748;14.326;2023-06-22T11:48:37;21.20;47.70
51613;DHT22;37694;51.748;14.326;2023-06-22T11:51:03;21.20;47.50
51613;DHT22;37694;51.748;14.326;2023-06-22T11:53:29;21.20;47.50
51613;DHT22;37694;51.748;14.326;2023-06-22T11:55:55;21.20;47.50
51613;DHT22;37694;51.748;14.326;2023-06-22T11:58:22;21.20;47.50
51613;DHT22;37694;51.748;14.326;2023-06-22T12:00:48;21.20;47.50
51613;DHT22;37694;51.748;14.326;2023-06-22T12:03:14;21.20;47.60
51613;DHT22;37694;51.748;14.326;2023-06-22T12:05:40;21.20;47.60
51613;DHT22;37694;51.748;14.326;2023-06-22T12:08:06;21.20;47.60
51613;DHT22;37694;51.748;14.326;2023-06-22T12:10:32;21.20;47.50
51613;DHT22;37694;51.748;14.326;2023-06-22T12:12:58;21.20;47.30
51613;DHT22;37694;51.748;14.326;2023-06-22T12:15:25;21.20;47.30
51613;DHT22;37694;51.748;14.326;2023-06-22T12:17:51;21.20;47.10
51613;DHT22;37694;51.748;14.326;2023-06-22T12:20:17;21.20;47.50
51613;DHT22;37694;51.748;14.326;2023-06-22T12:22:43;21.20;47.70
51613;DHT22;37694;51.748;14.326;2023-06-22T12:25:09;21.20;47.80
51613;DHT22;37694;51.748;14.326;2023-06-22T12:27:35;21.20;48.00
51613;DHT22;37694;51.748;14.326;2023-06-22T12:30:01;21.20;47.90
51613;DHT22;37694;51.748;14.326;2023-06-22T12:32:27;21.20;48.00
51613;DHT22;37694;51.748;14.326;2023-06-22T12:34:53;21.20;48.00
51613;DHT22;37694;51.748;14.326;2023-06-22T12:37:19;21.20;48.10
51613;DHT22;37694;51.748;14.326;2023-06-22T12:39:44;21.20;48.10
51613;DHT22;37694;51.748;14.326;2023-06-22T12:42:10;21.20;48.10
51613;DHT22;37694;51.748;14.326;2023-06-22T12:44:40;21.20;48.20
51613;DHT22;37694;51.748;14.326;2023-06-22T12:47:06;21.20;48.10
51613;DHT22;37694;51.748;14.326;2023-06-22T12:49:32;21.20;48.30
51613;DHT22;37694;51.748;14.326;2023-06-22T12:51:57;21.20;48.10
51613;DHT22;37694;51.748;14.326;2023-06-22T12:54:23;21.20;48.10
51613;DHT22;37694;51.748;14.326;2023-06-22T12:56:50;21.20;48.10
51613;DHT22;37694;51.748;14.326;2023-06-22T12:59:16;21.20;48.00
51613;DHT22;37694;51.748;14.326;2023-06-22T13:01:43;21.20;48.10
51613;DHT22;37694;51.748;14.326;2023-06-22T13:04:11;21.20;47.90
51613;DHT22;37694;51.748;14.326;2023-06-22T13:06:40;21.20;47.90
51613;DHT22;37694;51.748;14.326;2023-06-22T13:09:06;21.20;47.70
51613;DHT22;37694;51.748;14.326;2023-06-22T13:11:31;21.30;47.60
51613;DHT22;37694;51.748;14.326;2023-06-22T13:13:57;21.20;47.50
51613;DHT22;37694;51.748;14.326;2023-06-22T13:16:23;21.20;47.60
51613;DHT22;37694;51.748;14.326;2023-06-22T13:18:48;21.20;47.40
51613;DHT22;37694;51.748;14.326;2023-06-22T13:21:14;21.20;47.30
51613;DHT22;37694;51.748;14.326;2023-06-22T13:23:40;21.20;47.40
51613;DHT22;37694;51.748;14.326;2023-06-22T13:26:07;21.20;47.20
51613;DHT22;37694;51.748;14.326;2023-06-22T13:28:32;21.20;47.40
51613;DHT22;37694;51.748;14.326;2023-06-22T13:30:58;21.20;47.60
51613;DHT22;37694;51.748;14.326;2023-06-22T13:33:24;21.20;47.40
51613;DHT22;37694;51.748;14.326;2023-06-22T13:35:49;21.20;47.50
51613;DHT22;37694;51.748;14.326;2023-06-22T13:38:15;21.30;47.40
51613;DHT22;37694;51.748;14.326;2023-06-22T13:40:41;21.30;47.20
51613;DHT22;37694;51.748;14.326;2023-06-22T13:43:07;21.20;47.10
51613;DHT22;37694;51.748;14.326;2023-06-22T13:45:33;21.20;47.00
51613;DHT22;37694;51.748;14.326;2023-06-22T13:47:59;21.20;46.90
51613;DHT22;37694;51.748;14.326;2023-06-22T13:50:24;21.30;46.90
51613;DHT22;37694;51.748;14.326;2023-06-22T13:52:50;21.20;46.90
51613;DHT22;37694;51.748;14.326;2023-06-22T13:55:16;21.20;47.70
51613;DHT22;37694;51.748;14.326;2023-06-22T13:57:42;21.30;46.80
51613;DHT22;37694;51.748;14.326;2023-06-22T14:00:08;21.20;46.60
51613;DHT22;37694;51.748;14.326;2023-06-22T14:02:34;21.20;46.80
51613;DHT22;37694;51.748;14.326;2023-06-22T14:05:00;21.20;47.00
51613;DHT22;37694;51.748;14.326;2023-06-22T14:07:27;21.20;47.00
51613;DHT22;37694;51.748;14.326;2023-06-22T14:09:53;21.20;47.10
51613;DHT22;37694;51.748;14.326;2023-06-22T14:12:19;21.20;47.00
51613;DHT22;37694;51.748;14.326;2023-06-22T14:14:44;21.20;47.00
51613;DHT22;37694;51.748;14.326;2023-06-22T14:17:10;21.20;47.10
51613;DHT22;37694;51.748;14.326;2023-06-22T14:19:36;21.20;47.00
51613;DHT22;37694;51.748;14.326;2023-06-22T14:22:02;21.20;47.20
51613;DHT22;37694;51.748;14.326;2023-06-22T14:24:28;21.20;47.20
51613;DHT22;37694;51.748;14.326;2023-06-22T14:26:54;21.20;47.20
51613;DHT22;37694;51.748;14.326;2023-06-22T14:29:21;21.20;47.00
51613;DHT22;37694;51.748;14.326;2023-06-22T14:31:47;21.20;47.20
51613;DHT22;37694;51.748;14.326;2023-06-22T14:34:13;21.20;47.00
51613;DHT22;37694;51.748;14.326;2023-06-22T14:36:39;21.20;47.10
51613;DHT22;37694;51.748;14.326;2023-06-22T14:39:05;21.40;47.20
51613;DHT22;37694;51.748;14.326;2023-06-22T14:41:31;21.60;46.80
51613;DHT22;37694;51.748;14.326;2023-06-22T14:43:57;21.70;46.50
51613;DHT22;37694;51.748;14.326;2023-06-22T14:46:22;21.80;46.20
51613;DHT22;37694;51.748;14.326;2023-06-22T14:48:48;21.90;46.00
51613;DHT22;37694;51.748;14.326;2023-06-22T14:51:14;22.00;46.00
51613;DHT22;37694;51.748;14.326;2023-06-22T14:53:41;22.10;45.90
51613;DHT22;37694;51.748;14.326;2023-06-22T14:56:06;22.10;45.60
51613;DHT22;37694;51.748;14.326;2023-06-22T14:58:33;22.10;45.50
51613;DHT22;37694;51.748;14.326;2023-06-22T15:01:00;22.20;45.50
51613;DHT22;37694;51.748;14.326;2023-06-22T15:03:25;22.20;45.50
51613;DHT22;37694;51.748;14.326;2023-06-22T15:05:54;22.30;45.40
51613;DHT22;37694;51.748;14.326;2023-06-22T15:08:20;22.30;45.30
51613;DHT22;37694;51.748;14.326;2023-06-22T15:10:46;22.30;45.40
51613;DHT22;37694;51.748;14.326;2023-06-22T15:13:12;22.30;45.60